sensor_id;sensor_type;location;lat;lon;timestamp;temperature;humidity
1716;DHT22;855;48.824;9.220;2024-03-02T00:01:23;7.30;94.40
1716;DHT22;855;48.824;9.220;2024-03-02T00:03:50;7.10;94.80
1716;DHT22;855;48.824;9.220;2024-03-02T00:06:20;7.00;95.40
1716;DHT22;855;48.824;9.220;2024-03-02T00:08:48;7.10;95.90
1716;DHT22;855;48.824;9.220;2024-03-02T00:11:16;7.10;96.00
1716;DHT22;855;48.824;9.220;2024-03-02T00:13:45;7.20;95.80
1716;DHT22;855;48.824;9.220;2024-03-02T00:16:12;7.20;95.70
1716;DHT22;855;48.824;9.220;2024-03-02T00:18:38;7.20;95.80
1716;DHT22;855;48.824;9.220;2024-03-02T00:21:06;7.20;95.80
1716;DHT22;855;48.824;9.220;2024-03-02T00:23:35;7.20;95.80
1716;DHT22;855;48.824;9.220;2024-03-02T00:26:03;7.30;95.80
1716;DHT22;855;48.824;9.220;2024-03-02T00:28:33;7.30;95.80
1716;DHT22;855;48.824;9.220;2024-03-02T00:31:03;7.30;95.60
1716;DHT22;855;48.824;9.220;2024-03-02T00:33:34;7.40;95.80
1716;DHT22;855;48.824;9.220;2024-03-02T00:36:01;7.40;95.50
1716;DHT22;855;48.824;9.220;2024-03-02T00:38:29;7.40;95.30
1716;DHT22;855;48.824;9.220;2024-03-02T00:40:58;7.40;95.30
1716;DHT22;855;48.824;9.220;2024-03-02T00:43:49;7.40;95.30
1716;DHT22;855;48.824;9.220;2024-03-02T00:46:20;7.30;95.20
1716;DHT22;855;48.824;9.220;2024-03-02T00:48:57;7.30;95.30
1716;DHT22;855;48.824;9.220;2024-03-02T00:51:25;7.30;95.40
1716;DHT22;855;48.824;9.220;2024-03-02T00:53:54;7.30;95.30
1716;DHT22;855;48.824;9.220;2024-03-02T00:56:22;7.40;95.20
1716;DHT22;855;48.824;9.220;2024-03-02T00:58:51;7.30;95.00
1716;DHT22;855;48.824;9.220;2024-03-02T01:01:18;7.20;95.20
1716;DHT22;855;48.824;9.220;2024-03-02T01:03:46;7.20;95.40
1716;DHT22;855;48.824;9.220;2024-03-02T01:06:12;7.10;95.40
1716;DHT22;855;48.824;9.220;2024-03-02T01:08:39;7.20;95.60
1716;DHT22;855;48.824;9.220;2024-03-02T01:11:06;7.20;95.50
1716;DHT22;855;48.824;9.220;2024-03-02T01:13:33;7.10;95.30
1716;DHT22;855;48.824;9.220;2024-03-02T01:16:01;6.90;95.60
1716;DHT22;855;48.824;9.220;2024-03-02T01:18:28;6.90;96.10
1716;DHT22;855;48.824;9.220;2024-03-02T01:20:56;6.90;96.60
1716;DHT22;855;48.824;9.220;2024-03-02T01:23:23;7.00;96.50
1716;DHT22;855;48.824;9.220;2024-03-02T01:25:50;7.00;96.40
1716;DHT22;855;48.824;9.220;2024-03-02T01:28:18;6.90;96.60
1716;DHT22;855;48.824;9.220;2024-03-02T01:30:46;7.00;96.70
1716;DHT22;855;48.824;9.220;2024-03-02T01:33:14;7.10;96.40
1716;DHT22;855;48.824;9.220;2024-03-02T01:35:41;7.10;96.20
1716;DHT22;855;48.824;9.220;2024-03-02T01:38:08;7.10;95.90
1716;DHT22;855;48.824;9.220;2024-03-02T01:40:35;7.00;96.00
1716;DHT22;855;48.824;9.220;2024-03-02T01:43:03;6.90;96.00
1716;DHT22;855;48.824;9.220;2024-03-02T01:45:30;6.90;96.30
1716;DHT22;855;48.824;9.220;2024-03-02T01:47:57;6.90;96.50
1716;DHT22;855;48.824;9.220;2024-03-02T01:50:27;7.00;96.40
1716;DHT22;855;48.824;9.220;2024-03-02T01:52:55;7.00;96.10
1716;DHT22;855;48.824;9.220;2024-03-02T01:55:22;7.00;96.00
1716;DHT22;855;48.824;9.220;2024-03-02T01:57:49;7.00;95.70
1716;DHT22;855;48.824;9.220;2024-03-02T02:00:18;6.70;95.90
1716;DHT22;855;48.824;9.220;2024-03-02T02:02:45;6.80;96.00
1716;DHT22;855;48.824;9.220;2024-03-02T02:05:12;6.90;95.80
1716;DHT22;855;48.824;9.220;2024-03-02T02:07:41;6.80;95.70
1716;DHT22;855;48.824;9.220;2024-03-02T02:10:09;6.80;95.80
1716;DHT22;855;48.824;9.220;2024-03-02T02:12:36;6.80;95.60
1716;DHT22;855;48.824;9.220;2024-03-02T02:15:04;6.80;95.40
1716;DHT22;855;48.824;9.220;2024-03-02T02:17:47;6.80;95.40
1716;DHT22;855;48.824;9.220;2024-03-02T02:20:14;6.80;95.30
1716;DHT22;855;48.824;9.220;2024-03-02T02:22:54;6.80;95.20
1716;DHT22;855;48.824;9.220;2024-03-02T02:25:20;6.80;95.00
1716;DHT22;855;48.824;9.220;2024-03-02T02:27:47;6.80;95.00
1716;DHT22;855;48.824;9.220;2024-03-02T02:30:18;6.70;94.90
1716;DHT22;855;48.824;9.220;2024-03-02T02:32:45;6.70;95.00
1716;DHT22;855;48.824;9.220;2024-03-02T02:35:12;6.70;94.80
1716;DHT22;855;48.824;9.220;2024-03-02T02:37:39;6.70;94.80
1716;DHT22;855;48.824;9.220;2024-03-02T02:40:08;6.70;94.60
1716;DHT22;855;48.824;9.220;2024-03-02T02:42:35;6.70;94.90
1716;DHT22;855;48.824;9.220;2024-03-02T02:45:02;6.70;94.80
1716;DHT22;855;48.824;9.220;2024-03-02T02:47:29;6.60;94.50
1716;DHT22;855;48.824;9.220;2024-03-02T02:49:56;6.50;94.50
1716;DHT22;855;48.824;9.220;2024-03-02T02:52:23;6.50;94.70
1716;DHT22;855;48.824;9.220;2024-03-02T02:54:49;6.50;94.70
1716;DHT22;855;48.824;9.220;2024-03-02T02:57:18;6.50;94.50
1716;DHT22;855;48.824;9.220;2024-03-02T02:59:45;6.50;94.50
1716;DHT22;855;48.824;9.220;2024-03-02T03:02:11;6.40;94.40
1716;DHT22;855;48.824;9.220;2024-03-02T03:04:40;6.40;94.40
1716;DHT22;855;48.824;9.220;2024-03-02T03:07:06;6.20;94.40
1716;DHT22;855;48.824;9.220;2024-03-02T03:09:32;6.10;94.80
1716;DHT22;855;48.824;9.220;2024-03-02T03:11:59;6.00;95.10
1716;DHT22;855;48.824;9.220;2024-03-02T03:14:28;6.00;95.40
1716;DHT22;855;48.824;9.220;2024-03-02T03:16:55;6.00;95.20
1716;DHT22;855;48.824;9.220;2024-03-02T03:19:21;6.00;95.20
1716;DHT22;855;48.824;9.220;2024-03-02T03:21:48;5.90;95.20
1716;DHT22;855;48.824;9.220;2024-03-02T03:24:15;5.90;95.00
1716;DHT22;855;48.824;9.220;2024-03-02T03:26:42;5.80;94.90
1716;DHT22;855;48.824;9.220;2024-03-02T03:29:09;5.90;95.00
1716;DHT22;855;48.824;9.220;2024-03-02T03:31:37;5.80;94.90
1716;DHT22;855;48.824;9.220;2024-03-02T03:34:04;5.80;95.00
1716;DHT22;855;48.824;9.220;2024-03-02T03:36:30;5.80;95.00
1716;DHT22;855;48.824;9.220;2024-03-02T03:38:57;5.80;94.90
1716;DHT22;855;48.824;9.220;2024-03-02T03:41:24;5.60;95.00
1716;DHT22;855;48.824;9.220;2024-03-02T03:43:51;5.60;95.50
1716;DHT22;855;48.824;9.220;2024-03-02T03:46:17;5.60;95.40
1716;DHT22;855;48.824;9.220;2024-03-02T03:48:46;5.50;95.30
1716;DHT22;855;48.824;9.220;2024-03-02T03:51:13;5.50;95.40
1716;DHT22;855;48.824;9.220;2024-03-02T03:53:39;5.50;95.50
1716;DHT22;855;48.824;9.220;2024-03-02T03:56:06;5.50;95.50
1716;DHT22;855;48.824;9.220;2024-03-02T03:58:33;5.50;95.40
1716;DHT22;855;48.824;9.220;2024-03-02T04:01:00;5.50;95.40
1716;DHT22;855;48.824;9.220;2024-03-02T04:03:26;5.50;95.10
1716;DHT22;855;48.824;9.220;2024-03-02T04:05:55;5.50;95.10
1716;DHT22;855;48.824;9.220;2024-03-02T04:08:21;5.50;95.00
1716;DHT22;855;48.824;9.220;2024-03-02T04:10:48;5.50;94.90
1716;DHT22;855;48.824;9.220;2024-03-02T04:13:15;5.50;95.00
1716;DHT22;855;48.824;9.220;2024-03-02T04:15:42;5.50;94.90
1716;DHT22;855;48.824;9.220;2024-03-02T04:18:09;5.50;94.90
1716;DHT22;855;48.824;9.220;2024-03-02T04:20:36;5.50;94.90
1716;DHT22;855;48.824;9.220;2024-03-02T04:23:04;5.40;94.90
1716;DHT22;855;48.824;9.220;2024-03-02T04:25:31;5.40;94.90
1716;DHT22;855;48.824;9.220;2024-03-02T04:27:57;5.40;94.90
1716;DHT22;855;48.824;9.220;2024-03-02T04:30:24;5.40;94.90
1716;DHT22;855;48.824;9.220;2024-03-02T04:32:51;5.40;94.90
1716;DHT22;855;48.824;9.220;2024-03-02T04:35:18;5.30;94.90
1716;DHT22;855;48.824;9.220;2024-03-02T04:37:45;5.40;94.90
1716;DHT22;855;48.824;9.220;2024-03-02T04:40:13;5.40;95.00
1716;DHT22;855;48.824;9.220;2024-03-02T04:42:40;5.40;95.00
1716;DHT22;855;48.824;9.220;2024-03-02T04:45:07;5.30;95.00
1716;DHT22;855;48.824;9.220;2024-03-02T04:47:34;5.30;95.10
1716;DHT22;855;48.824;9.220;2024-03-02T04:50:01;5.30;95.00
1716;DHT22;855;48.824;9.220;2024-03-02T04:52:28;5.20;95.00
1716;DHT22;855;48.824;9.220;2024-03-02T04:54:55;5.10;95.10
1716;DHT22;855;48.824;9.220;2024-03-02T04:57:50;5.10;95.10
1716;DHT22;855;48.824;9.220;2024-03-02T05:00:20;5.10;95.30
1716;DHT22;855;48.824;9.220;2024-03-02T05:02:47;5.10;95.40
1716;DHT22;855;48.824;9.220;2024-03-02T05:05:14;5.10;95.30
1716;DHT22;855;48.824;9.220;2024-03-02T05:07:41;5.00;95.20
1716;DHT22;855;48.824;9.220;2024-03-02T05:10:09;5.00;95.10
1716;DHT22;855;48.824;9.220;2024-03-02T05:12:37;5.00;95.20
1716;DHT22;855;48.824;9.220;2024-03-02T05:15:23;4.90;95.20
1716;DHT22;855;48.824;9.220;2024-03-02T05:17:50;4.90;95.20
1716;DHT22;855;48.824;9.220;2024-03-02T05:20:17;4.90;95.00
1716;DHT22;855;48.824;9.220;2024-03-02T05:22:44;4.80;95.10
1716;DHT22;855;48.824;9.220;2024-03-02T05:25:12;4.80;95.30
1716;DHT22;855;48.824;9.220;2024-03-02T05:27:39;4.80;95.40
1716;DHT22;855;48.824;9.220;2024-03-02T05:30:07;4.80;95.40
1716;DHT22;855;48.824;9.220;2024-03-02T05:32:36;4.80;95.40
1716;DHT22;855;48.824;9.220;2024-03-02T05:35:03;4.90;95.40
1716;DHT22;855;48.824;9.220;2024-03-02T05:37:30;4.90;95.20
1716;DHT22;855;48.824;9.220;2024-03-02T05:39:57;4.90;95.10
1716;DHT22;855;48.824;9.220;2024-03-02T05:42:24;4.90;95.00
1716;DHT22;855;48.824;9.220;2024-03-02T05:44:52;4.90;95.00
1716;DHT22;855;48.824;9.220;2024-03-02T05:47:19;4.90;94.80
1716;DHT22;855;48.824;9.220;2024-03-02T05:49:47;4.80;94.80
1716;DHT22;855;48.824;9.220;2024-03-02T05:52:14;4.80;94.80
1716;DHT22;855;48.824;9.220;2024-03-02T05:54:41;4.80;94.90
1716;DHT22;855;48.824;9.220;2024-03-02T05:57:08;4.80;95.00
1716;DHT22;855;48.824;9.220;2024-03-02T05:59:57;4.80;95.00
1716;DHT22;855;48.824;9.220;2024-03-02T06:02:24;4.90;94.90
1716;DHT22;855;48.824;9.220;2024-03-02T06:04:54;4.80;94.90
1716;DHT22;855;48.824;9.220;2024-03-02T06:07:20;4.80;94.80
1716;DHT22;855;48.824;9.220;2024-03-02T06:09:47;4.70;94.90
1716;DHT22;855;48.824;9.220;2024-03-02T06:12:16;4.70;95.10
1716;DHT22;855;48.824;9.220;2024-03-02T06:14:43;4.70;95.10
1716;DHT22;855;48.824;9.220;2024-03-02T06:17:10;4.70;95.00
1716;DHT22;855;48.824;9.220;2024-03-02T06:19:37;4.60;94.90
1716;DHT22;855;48.824;9.220;2024-03-02T06:22:05;4.70;95.10
1716;DHT22;855;48.824;9.220;2024-03-02T06:24:35;4.70;95.30
1716;DHT22;855;48.824;9.220;2024-03-02T06:27:02;4.60;95.30
1716;DHT22;855;48.824;9.220;2024-03-02T06:29:29;4.60;95.40
1716;DHT22;855;48.824;9.220;2024-03-02T06:31:58;4.70;95.60
1716;DHT22;855;48.824;9.220;2024-03-02T06:34:25;4.70;95.70
1716;DHT22;855;48.824;9.220;2024-03-02T06:36:52;4.80;95.80
1716;DHT22;855;48.824;9.220;2024-03-02T06:39:20;4.80;95.80
1716;DHT22;855;48.824;9.220;2024-03-02T06:41:47;4.70;95.80
1716;DHT22;855;48.824;9.220;2024-03-02T06:44:14;4.70;95.90
1716;DHT22;855;48.824;9.220;2024-03-02T06:46:40;4.70;96.10
1716;DHT22;855;48.824;9.220;2024-03-02T06:49:07;4.80;96.20
1716;DHT22;855;48.824;9.220;2024-03-02T06:51:35;4.90;96.20
1716;DHT22;855;48.824;9.220;2024-03-02T06:54:02;5.00;96.20
1716;DHT22;855;48.824;9.220;2024-03-02T06:56:30;5.10;96.30
1716;DHT22;855;48.824;9.220;2024-03-02T06:58:58;5.20;96.50
1716;DHT22;855;48.824;9.220;2024-03-02T07:01:25;5.30;96.50
1716;DHT22;855;48.824;9.220;2024-03-02T07:03:53;5.30;96.60
1716;DHT22;855;48.824;9.220;2024-03-02T07:06:20;5.40;96.50
1716;DHT22;855;48.824;9.220;2024-03-02T07:08:47;5.40;96.60
1716;DHT22;855;48.824;9.220;2024-03-02T07:11:14;5.40;96.70
1716;DHT22;855;48.824;9.220;2024-03-02T07:13:42;5.50;96.80
1716;DHT22;855;48.824;9.220;2024-03-02T07:16:09;5.60;96.70
1716;DHT22;855;48.824;9.220;2024-03-02T07:18:55;5.80;96.80
1716;DHT22;855;48.824;9.220;2024-03-02T07:21:23;5.90;97.00
1716;DHT22;855;48.824;9.220;2024-03-02T07:23:49;6.00;97.20
1716;DHT22;855;48.824;9.220;2024-03-02T07:26:16;6.20;97.20
1716;DHT22;855;48.824;9.220;2024-03-02T07:28:46;6.30;97.30
1716;DHT22;855;48.824;9.220;2024-03-02T07:31:14;6.50;97.70
1716;DHT22;855;48.824;9.220;2024-03-02T07:33:40;6.70;97.70
1716;DHT22;855;48.824;9.220;2024-03-02T07:36:08;6.80;97.70
1716;DHT22;855;48.824;9.220;2024-03-02T07:38:34;7.00;97.80
1716;DHT22;855;48.824;9.220;2024-03-02T07:41:01;7.20;97.60
1716;DHT22;855;48.824;9.220;2024-03-02T07:43:30;7.40;97.30
1716;DHT22;855;48.824;9.220;2024-03-02T07:46:00;7.50;96.80
1716;DHT22;855;48.824;9.220;2024-03-02T07:48:26;7.60;96.10
1716;DHT22;855;48.824;9.220;2024-03-02T07:50:53;7.70;95.10
1716;DHT22;855;48.824;9.220;2024-03-02T07:53:20;7.90;95.00
1716;DHT22;855;48.824;9.220;2024-03-02T07:55:47;8.10;95.20
1716;DHT22;855;48.824;9.220;2024-03-02T07:58:13;8.20;93.80
1716;DHT22;855;48.824;9.220;2024-03-02T08:00:41;8.30;92.90
1716;DHT22;855;48.824;9.220;2024-03-02T08:03:11;8.40;91.80
1716;DHT22;855;48.824;9.220;2024-03-02T08:05:38;8.50;91.40
1716;DHT22;855;48.824;9.220;2024-03-02T08:08:05;8.50;90.30
1716;DHT22;855;48.824;9.220;2024-03-02T08:10:32;8.50;90.10
1716;DHT22;855;48.824;9.220;2024-03-02T08:12:59;8.60;89.50
1716;DHT22;855;48.824;9.220;2024-03-02T08:15:26;8.60;89.40
1716;DHT22;855;48.824;9.220;2024-03-02T08:17:53;8.60;88.90
1716;DHT22;855;48.824;9.220;2024-03-02T08:20:21;8.60;88.70
1716;DHT22;855;48.824;9.220;2024-03-02T08:22:48;8.60;88.60
1716;DHT22;855;48.824;9.220;2024-03-02T08:25:15;8.60;88.30
1716;DHT22;855;48.824;9.220;2024-03-02T08:27:42;8.50;88.30
1716;DHT22;855;48.824;9.220;2024-03-02T08:30:10;8.50;88.50
1716;DHT22;855;48.824;9.220;2024-03-02T08:32:37;8.60;88.60
1716;DHT22;855;48.824;9.220;2024-03-02T08:35:06;8.60;88.50
1716;DHT22;855;48.824;9.220;2024-03-02T08:37:35;8.70;88.30
1716;DHT22;855;48.824;9.220;2024-03-02T08:40:04;8.70;88.30
1716;DHT22;855;48.824;9.220;2024-03-02T08:42:32;8.80;87.80
1716;DHT22;855;48.824;9.220;2024-03-02T08:45:00;8.90;87.90
1716;DHT22;855;48.824;9.220;2024-03-02T08:47:27;9.00;87.10
1716;DHT22;855;48.824;9.220;2024-03-02T08:49:54;9.00;86.90
1716;DHT22;855;48.824;9.220;2024-03-02T08:52:21;9.10;86.50
1716;DHT22;855;48.824;9.220;2024-03-02T08:54:49;9.20;86.60
1716;DHT22;855;48.824;9.220;2024-03-02T08:57:16;9.30;85.80
1716;DHT22;855;48.824;9.220;2024-03-02T08:59:43;9.40;85.30
1716;DHT22;855;48.824;9.220;2024-03-02T09:02:10;9.50;84.60
1716;DHT22;855;48.824;9.220;2024-03-02T09:04:37;9.60;83.60
1716;DHT22;855;48.824;9.220;2024-03-02T09:07:04;9.70;82.80
1716;DHT22;855;48.824;9.220;2024-03-02T09:09:31;9.70;82.90
1716;DHT22;855;48.824;9.220;2024-03-02T09:11:59;9.90;82.90
1716;DHT22;855;48.824;9.220;2024-03-02T09:14:26;9.90;82.70
1716;DHT22;855;48.824;9.220;2024-03-02T09:16:53;10.00;82.50
1716;DHT22;855;48.824;9.220;2024-03-02T09:19:20;10.00;81.50
1716;DHT22;855;48.824;9.220;2024-03-02T09:21:47;10.10;81.50
1716;DHT22;855;48.824;9.220;2024-03-02T09:24:14;10.20;81.20
1716;DHT22;855;48.824;9.220;2024-03-02T09:26:41;10.20;80.10
1716;DHT22;855;48.824;9.220;2024-03-02T09:29:09;10.30;80.10
1716;DHT22;855;48.824;9.220;2024-03-02T09:31:39;10.40;79.00
1716;DHT22;855;48.824;9.220;2024-03-02T09:34:06;10.60;79.20
1716;DHT22;855;48.824;9.220;2024-03-02T09:36:33;10.70;78.80
1716;DHT22;855;48.824;9.220;2024-03-02T09:39:00;10.90;78.20
1716;DHT22;855;48.824;9.220;2024-03-02T09:41:29;11.10;77.20
1716;DHT22;855;48.824;9.220;2024-03-02T09:43:56;11.20;76.30
1716;DHT22;855;48.824;9.220;2024-03-02T09:46:25;11.30;75.00
1716;DHT22;855;48.824;9.220;2024-03-02T09:48:52;11.40;75.10
1716;DHT22;855;48.824;9.220;2024-03-02T09:51:19;11.50;74.90
1716;DHT22;855;48.824;9.220;2024-03-02T09:53:47;11.50;74.50
1716;DHT22;855;48.824;9.220;2024-03-02T09:56:14;11.60;72.70
1716;DHT22;855;48.824;9.220;2024-03-02T09:58:42;11.70;73.80
1716;DHT22;855;48.824;9.220;2024-03-02T10:01:09;11.90;72.30
1716;DHT22;855;48.824;9.220;2024-03-02T10:03:38;11.90;72.20
1716;DHT22;855;48.824;9.220;2024-03-02T10:06:21;12.00;71.40
1716;DHT22;855;48.824;9.220;2024-03-02T10:08:48;12.10;71.20
1716;DHT22;855;48.824;9.220;2024-03-02T10:11:28;12.10;71.40
1716;DHT22;855;48.824;9.220;2024-03-02T10:14:06;12.20;71.30
1716;DHT22;855;48.824;9.220;2024-03-02T10:16:35;12.20;71.60
1716;DHT22;855;48.824;9.220;2024-03-02T10:19:20;12.30;70.90
1716;DHT22;855;48.824;9.220;2024-03-02T10:21:47;12.40;70.80
1716;DHT22;855;48.824;9.220;2024-03-02T10:24:15;12.40;70.20
1716;DHT22;855;48.824;9.220;2024-03-02T10:26:41;12.60;70.90
1716;DHT22;855;48.824;9.220;2024-03-02T10:29:10;12.80;71.00
1716;DHT22;855;48.824;9.220;2024-03-02T10:31:37;12.90;69.20
1716;DHT22;855;48.824;9.220;2024-03-02T10:34:04;12.90;68.50
1716;DHT22;855;48.824;9.220;2024-03-02T10:36:33;13.00;67.90
1716;DHT22;855;48.824;9.220;2024-03-02T10:39:02;13.20;68.20
1716;DHT22;855;48.824;9.220;2024-03-02T10:41:32;13.30;68.00
1716;DHT22;855;48.824;9.220;2024-03-02T10:44:02;13.40;66.90
1716;DHT22;855;48.824;9.220;2024-03-02T10:46:30;13.40;66.10
1716;DHT22;855;48.824;9.220;2024-03-02T10:48:58;13.50;66.40
1716;DHT22;855;48.824;9.220;2024-03-02T10:51:25;13.60;66.50
1716;DHT22;855;48.824;9.220;2024-03-02T10:53:54;13.60;66.50
1716;DHT22;855;48.824;9.220;2024-03-02T10:56:26;13.60;65.30
1716;DHT22;855;48.824;9.220;2024-03-02T10:59:01;13.60;67.70
1716;DHT22;855;48.824;9.220;2024-03-02T11:01:29;13.70;65.50
1716;DHT22;855;48.824;9.220;2024-03-02T11:03:57;13.70;66.30
1716;DHT22;855;48.824;9.220;2024-03-02T11:06:26;13.70;67.30
1716;DHT22;855;48.824;9.220;2024-03-02T11:08:58;13.80;66.00
1716;DHT22;855;48.824;9.220;2024-03-02T11:11:30;13.90;64.80
1716;DHT22;855;48.824;9.220;2024-03-02T11:14:01;14.10;65.90
1716;DHT22;855;48.824;9.220;2024-03-02T11:16:34;14.20;63.10
1716;DHT22;855;48.824;9.220;2024-03-02T11:19:03;14.40;64.00
1716;DHT22;855;48.824;9.220;2024-03-02T11:21:32;14.50;62.60
1716;DHT22;855;48.824;9.220;2024-03-02T11:24:00;14.60;60.30
1716;DHT22;855;48.824;9.220;2024-03-02T11:26:28;14.70;62.60
1716;DHT22;855;48.824;9.220;2024-03-02T11:28:55;14.80;61.20
1716;DHT22;855;48.824;9.220;2024-03-02T11:31:58;14.80;61.60
1716;DHT22;855;48.824;9.220;2024-03-02T11:34:29;15.00;61.40
1716;DHT22;855;48.824;9.220;2024-03-02T11:36:56;15.10;60.40
1716;DHT22;855;48.824;9.220;2024-03-02T11:39:26;15.10;61.20
1716;DHT22;855;48.824;9.220;2024-03-02T11:41:52;15.20;60.80
1716;DHT22;855;48.824;9.220;2024-03-02T11:44:20;15.10;59.80
1716;DHT22;855;48.824;9.220;2024-03-02T11:46:52;15.30;60.30
1716;DHT22;855;48.824;9.220;2024-03-02T11:49:36;15.40;61.40
1716;DHT22;855;48.824;9.220;2024-03-02T11:52:05;15.40;59.00
1716;DHT22;855;48.824;9.220;2024-03-02T11:54:34;15.50;59.80
1716;DHT22;855;48.824;9.220;2024-03-02T11:57:01;15.60;60.60
1716;DHT22;855;48.824;9.220;2024-03-02T11:59:29;15.70;57.90
1716;DHT22;855;48.824;9.220;2024-03-02T12:01:56;15.80;56.70
1716;DHT22;855;48.824;9.220;2024-03-02T12:04:24;15.80;55.30
1716;DHT22;855;48.824;9.220;2024-03-02T12:06:54;15.80;55.80
1716;DHT22;855;48.824;9.220;2024-03-02T12:09:21;15.80;55.70
1716;DHT22;855;48.824;9.220;2024-03-02T12:12:01;15.90;57.40
1716;DHT22;855;48.824;9.220;2024-03-02T12:14:29;15.90;55.30
1716;DHT22;855;48.824;9.220;2024-03-02T12:16:55;15.90;54.50
1716;DHT22;855;48.824;9.220;2024-03-02T12:19:24;15.70;54.40
1716;DHT22;855;48.824;9.220;2024-03-02T12:21:51;15.80;54.70
1716;DHT22;855;48.824;9.220;2024-03-02T12:24:18;15.90;55.20
1716;DHT22;855;48.824;9.220;2024-03-02T12:26:45;16.10;54.00
1716;DHT22;855;48.824;9.220;2024-03-02T12:29:14;16.20;53.90
1716;DHT22;855;48.824;9.220;2024-03-02T12:31:42;16.40;53.30
1716;DHT22;855;48.824;9.220;2024-03-02T12:34:12;16.50;53.40
1716;DHT22;855;48.824;9.220;2024-03-02T12:36:39;16.60;52.20
1716;DHT22;855;48.824;9.220;2024-03-02T12:39:07;16.60;52.30
1716;DHT22;855;48.824;9.220;2024-03-02T12:41:36;16.70;53.10
1716;DHT22;855;48.824;9.220;2024-03-02T12:44:04;16.80;52.80
1716;DHT22;855;48.824;9.220;2024-03-02T12:46:32;16.90;51.80
1716;DHT22;855;48.824;9.220;2024-03-02T12:49:07;16.90;53.10
1716;DHT22;855;48.824;9.220;2024-03-02T12:51:35;17.00;52.10
1716;DHT22;855;48.824;9.220;2024-03-02T12:54:02;17.10;50.40
1716;DHT22;855;48.824;9.220;2024-03-02T12:56:30;17.10;49.70
1716;DHT22;855;48.824;9.220;2024-03-02T12:58:58;17.10;49.80
1716;DHT22;855;48.824;9.220;2024-03-02T13:01:26;17.20;49.60
1716;DHT22;855;48.824;9.220;2024-03-02T13:03:54;17.20;48.80
1716;DHT22;855;48.824;9.220;2024-03-02T13:06:22;17.10;49.40
1716;DHT22;855;48.824;9.220;2024-03-02T13:08:50;17.20;48.60
1716;DHT22;855;48.824;9.220;2024-03-02T13:11:17;17.30;50.40
1716;DHT22;855;48.824;9.220;2024-03-02T13:13:44;17.20;48.40
1716;DHT22;855;48.824;9.220;2024-03-02T13:16:11;17.30;49.20
1716;DHT22;855;48.824;9.220;2024-03-02T13:18:38;17.30;48.90
1716;DHT22;855;48.824;9.220;2024-03-02T13:21:07;17.30;47.90
1716;DHT22;855;48.824;9.220;2024-03-02T13:23:34;17.10;47.70
1716;DHT22;855;48.824;9.220;2024-03-02T13:26:01;17.10;48.70
1716;DHT22;855;48.824;9.220;2024-03-02T13:28:28;17.10;48.70
1716;DHT22;855;48.824;9.220;2024-03-02T13:30:55;17.30;49.40
1716;DHT22;855;48.824;9.220;2024-03-02T13:33:22;17.10;47.90
1716;DHT22;855;48.824;9.220;2024-03-02T13:35:49;17.20;48.30
1716;DHT22;855;48.824;9.220;2024-03-02T13:38:18;17.30;48.40
1716;DHT22;855;48.824;9.220;2024-03-02T13:40:46;17.30;47.30
1716;DHT22;855;48.824;9.220;2024-03-02T13:43:13;17.30;48.10
1716;DHT22;855;48.824;9.220;2024-03-02T13:45:40;17.20;47.50
1716;DHT22;855;48.824;9.220;2024-03-02T13:48:07;17.20;48.30
1716;DHT22;855;48.824;9.220;2024-03-02T13:50:34;17.30;49.20
1716;DHT22;855;48.824;9.220;2024-03-02T13:53:01;17.40;47.60
1716;DHT22;855;48.824;9.220;2024-03-02T13:55:30;17.50;47.90
1716;DHT22;855;48.824;9.220;2024-03-02T13:57:57;17.60;47.80
1716;DHT22;855;48.824;9.220;2024-03-02T14:00:24;17.60;47.60
1716;DHT22;855;48.824;9.220;2024-03-02T14:02:50;17.60;47.90
1716;DHT22;855;48.824;9.220;2024-03-02T14:05:17;17.50;49.20
1716;DHT22;855;48.824;9.220;2024-03-02T14:07:44;17.60;48.30
1716;DHT22;855;48.824;9.220;2024-03-02T14:10:11;17.60;49.20
1716;DHT22;855;48.824;9.220;2024-03-02T14:12:41;17.60;48.60
1716;DHT22;855;48.824;9.220;2024-03-02T14:15:08;17.80;48.30
1716;DHT22;855;48.824;9.220;2024-03-02T14:17:35;17.80;48.70
1716;DHT22;855;48.824;9.220;2024-03-02T14:20:02;17.90;46.70
1716;DHT22;855;48.824;9.220;2024-03-02T14:22:30;17.70;46.50
1716;DHT22;855;48.824;9.220;2024-03-02T14:24:57;17.60;45.80
1716;DHT22;855;48.824;9.220;2024-03-02T14:27:24;17.70;46.30
1716;DHT22;855;48.824;9.220;2024-03-02T14:29:52;17.60;46.20
1716;DHT22;855;48.824;9.220;2024-03-02T14:32:19;17.70;46.50
1716;DHT22;855;48.824;9.220;2024-03-02T14:34:46;17.80;46.30
1716;DHT22;855;48.824;9.220;2024-03-02T14:37:13;17.70;46.80
1716;DHT22;855;48.824;9.220;2024-03-02T14:39:40;17.50;47.60
1716;DHT22;855;48.824;9.220;2024-03-02T14:42:07;17.40;48.30
1716;DHT22;855;48.824;9.220;2024-03-02T14:44:34;17.10;47.80
1716;DHT22;855;48.824;9.220;2024-03-02T14:47:02;17.10;48.60
1716;DHT22;855;48.824;9.220;2024-03-02T14:49:30;17.10;47.90
1716;DHT22;855;48.824;9.220;2024-03-02T14:51:57;17.00;48.10
1716;DHT22;855;48.824;9.220;2024-03-02T14:54:23;16.90;47.80
1716;DHT22;855;48.824;9.220;2024-03-02T14:56:50;16.80;47.50
1716;DHT22;855;48.824;9.220;2024-03-02T14:59:17;16.70;48.30
1716;DHT22;855;48.824;9.220;2024-03-02T15:01:44;16.70;47.90
1716;DHT22;855;48.824;9.220;2024-03-02T15:04:14;16.60;47.30
1716;DHT22;855;48.824;9.220;2024-03-02T15:06:42;16.70;47.60
1716;DHT22;855;48.824;9.220;2024-03-02T15:09:09;16.90;47.20
1716;DHT22;855;48.824;9.220;2024-03-02T15:11:36;17.00;47.20
1716;DHT22;855;48.824;9.220;2024-03-02T15:14:02;17.10;46.60
1716;DHT22;855;48.824;9.220;2024-03-02T15:16:29;17.10;46.30
1716;DHT22;855;48.824;9.220;2024-03-02T15:18:56;17.10;46.60
1716;DHT22;855;48.824;9.220;2024-03-02T15:21:24;17.10;46.70
1716;DHT22;855;48.824;9.220;2024-03-02T15:23:51;17.20;47.10
1716;DHT22;855;48.824;9.220;2024-03-02T15:26:18;17.20;46.10
1716;DHT22;855;48.824;9.220;2024-03-02T15:28:45;17.00;45.60
1716;DHT22;855;48.824;9.220;2024-03-02T15:31:11;16.70;46.30
1716;DHT22;855;48.824;9.220;2024-03-02T15:33:38;16.50;46.70
1716;DHT22;855;48.824;9.220;2024-03-02T15:36:05;16.50;47.10
1716;DHT22;855;48.824;9.220;2024-03-02T15:38:34;16.50;47.30
1716;DHT22;855;48.824;9.220;2024-03-02T15:41:03;16.30;46.10
1716;DHT22;855;48.824;9.220;2024-03-02T15:43:30;16.20;45.80
1716;DHT22;855;48.824;9.220;2024-03-02T15:45:57;16.20;46.50
1716;DHT22;855;48.824;9.220;2024-03-02T15:48:24;16.20;46.60
1716;DHT22;855;48.824;9.220;2024-03-02T15:50:51;16.10;47.10
1716;DHT22;855;48.824;9.220;2024-03-02T15:53:18;16.00;48.10
1716;DHT22;855;48.824;9.220;2024-03-02T15:55:47;15.90;49.20
1716;DHT22;855;48.824;9.220;2024-03-02T15:58:14;15.90;49.90
1716;DHT22;855;48.824;9.220;2024-03-02T16:00:40;15.80;50.80
1716;DHT22;855;48.824;9.220;2024-03-02T16:03:07;15.80;51.20
1716;DHT22;855;48.824;9.220;2024-03-02T16:05:34;15.70;52.10
1716;DHT22;855;48.824;9.220;2024-03-02T16:08:01;15.70;52.30
1716;DHT22;855;48.824;9.220;2024-03-02T16:10:28;15.60;52.20
1716;DHT22;855;48.824;9.220;2024-03-02T16:12:57;15.50;52.60
1716;DHT22;855;48.824;9.220;2024-03-02T16:15:26;15.40;52.90
1716;DHT22;855;48.824;9.220;2024-03-02T16:17:56;15.30;53.40
1716;DHT22;855;48.824;9.220;2024-03-02T16:20:24;15.30;53.80
1716;DHT22;855;48.824;9.220;2024-03-02T16:22:50;15.20;54.40
1716;DHT22;855;48.824;9.220;2024-03-02T16:25:17;15.10;54.80
1716;DHT22;855;48.824;9.220;2024-03-02T16:27:44;15.10;55.30
1716;DHT22;855;48.824;9.220;2024-03-02T16:30:14;15.10;55.70
1716;DHT22;855;48.824;9.220;2024-03-02T16:32:40;15.10;55.80